sensor_id;sensor_type;location;lat;lon;timestamp;P1;durP1;ratioP1;P2;durP2;ratioP2
7205;SDS011;3644;53.480;10.004;2023-11-19T00:00:10;7.23;;;4.90;;
7205;SDS011;3644;53.480;10.004;2023-11-19T00:02:37;9.53;;;6.20;;
7205;SDS011;3644;53.480;10.004;2023-11-19T00:05:03;8.00;;;5.27;;
7205;SDS011;3644;53.480;10.004;2023-11-19T00:07:29;8.37;;;5.40;;
7205;SDS011;3644;53.480;10.004;2023-11-19T00:09:55;8.33;;;5.63;;
7205;SDS011;3644;53.480;10.004;2023-11-19T00:12:20;7.67;;;4.40;;
7205;SDS011;3644;53.480;10.004;2023-11-19T00:14:46;5.37;;;4.80;;
7205;SDS011;3644;53.480;10.004;2023-11-19T00:17:11;4.13;;;3.63;;
7205;SDS011;3644;53.480;10.004;2023-11-19T00:19:37;8.43;;;4.63;;
7205;SDS011;3644;53.480;10.004;2023-11-19T00:22:02;5.33;;;4.60;;
7205;SDS011;3644;53.480;10.004;2023-11-19T00:24:29;10.90;;;5.83;;
7205;SDS011;3644;53.480;10.004;2023-11-19T00:26:55;5.27;;;4.50;;
7205;SDS011;3644;53.480;10.004;2023-11-19T00:29:21;6.63;;;4.77;;
7205;SDS011;3644;53.480;10.004;2023-11-19T00:31:47;7.17;;;4.00;;
7205;SDS011;3644;53.480;10.004;2023-11-19T00:34:12;4.60;;;4.20;;
7205;SDS011;3644;53.480;10.004;2023-11-19T00:36:38;6.30;;;4.47;;
7205;SDS011;3644;53.480;10.004;2023-11-19T00:39:04;5.90;;;4.37;;
7205;SDS011;3644;53.480;10.004;2023-11-19T00:41:30;3.73;;;3.37;;
7205;SDS011;3644;53.480;10.004;2023-11-19T00:43:56;5.70;;;4.53;;
7205;SDS011;3644;53.480;10.004;2023-11-19T00:46:21;5.20;;;4.07;;
7205;SDS011;3644;53.480;10.004;2023-11-19T00:48:47;4.80;;;3.37;;
7205;SDS011;3644;53.480;10.004;2023-11-19T00:51:12;4.30;;;3.80;;
7205;SDS011;3644;53.480;10.004;2023-11-19T00:53:38;3.90;;;3.20;;
7205;SDS011;3644;53.480;10.004;2023-11-19T00:56:03;4.03;;;3.37;;
7205;SDS011;3644;53.480;10.004;2023-11-19T00:58:29;7.70;;;3.00;;
7205;SDS011;3644;53.480;10.004;2023-11-19T01:00:55;3.60;;;3.30;;
7205;SDS011;3644;53.480;10.004;2023-11-19T01:03:22;4.07;;;3.30;;
7205;SDS011;3644;53.480;10.004;2023-11-19T01:05:47;2.57;;;2.37;;
7205;SDS011;3644;53.480;10.004;2023-11-19T01:08:13;5.93;;;3.30;;
7205;SDS011;3644;53.480;10.004;2023-11-19T01:10:39;3.60;;;2.80;;
7205;SDS011;3644;53.480;10.004;2023-11-19T01:13:05;3.43;;;2.60;;
7205;SDS011;3644;53.480;10.004;2023-11-19T01:15:31;3.37;;;3.07;;
7205;SDS011;3644;53.480;10.004;2023-11-19T01:17:56;3.07;;;2.77;;
7205;SDS011;3644;53.480;10.004;2023-11-19T01:20:22;2.43;;;2.20;;
7205;SDS011;3644;53.480;10.004;2023-11-19T01:22:48;2.37;;;2.20;;
7205;SDS011;3644;53.480;10.004;2023-11-19T01:25:14;2.10;;;1.90;;
7205;SDS011;3644;53.480;10.004;2023-11-19T01:27:39;4.23;;;2.60;;
7205;SDS011;3644;53.480;10.004;2023-11-19T01:30:05;4.40;;;2.63;;
7205;SDS011;3644;53.480;10.004;2023-11-19T01:32:34;2.23;;;2.10;;
7205;SDS011;3644;53.480;10.004;2023-11-19T01:35:00;2.70;;;2.47;;
7205;SDS011;3644;53.480;10.004;2023-11-19T01:37:26;2.37;;;2.17;;
7205;SDS011;3644;53.480;10.004;2023-11-19T01:39:51;1.97;;;1.87;;
7205;SDS011;3644;53.480;10.004;2023-11-19T01:42:17;3.80;;;1.87;;
7205;SDS011;3644;53.480;10.004;2023-11-19T01:44:42;2.50;;;2.07;;
7205;SDS011;3644;53.480;10.004;2023-11-19T01:47:19;1.97;;;1.80;;
7205;SDS011;3644;53.480;10.004;2023-11-19T01:49:45;1.90;;;1.80;;
7205;SDS011;3644;53.480;10.004;2023-11-19T01:52:10;2.03;;;1.70;;
7205;SDS011;3644;53.480;10.004;2023-11-19T01:54:36;1.83;;;1.73;;
7205;SDS011;3644;53.480;10.004;2023-11-19T01:57:01;1.70;;;1.60;;
7205;SDS011;3644;53.480;10.004;2023-11-19T01:59:27;2.50;;;1.73;;
7205;SDS011;3644;53.480;10.004;2023-11-19T02:01:54;3.07;;;1.30;;
7205;SDS011;3644;53.480;10.004;2023-11-19T02:04:20;1.33;;;1.33;;
7205;SDS011;3644;53.480;10.004;2023-11-19T02:06:46;1.27;;;1.27;;
7205;SDS011;3644;53.480;10.004;2023-11-19T02:09:17;1.37;;;1.37;;
7205;SDS011;3644;53.480;10.004;2023-11-19T02:11:44;1.70;;;1.60;;
7205;SDS011;3644;53.480;10.004;2023-11-19T02:14:10;1.30;;;1.20;;
7205;SDS011;3644;53.480;10.004;2023-11-19T02:16:36;2.93;;;1.60;;
7205;SDS011;3644;53.480;10.004;2023-11-19T02:19:01;1.53;;;1.43;;
7205;SDS011;3644;53.480;10.004;2023-11-19T02:21:27;1.60;;;1.50;;
7205;SDS011;3644;53.480;10.004;2023-11-19T02:23:52;1.10;;;1.10;;
7205;SDS011;3644;53.480;10.004;2023-11-19T02:28:53;1.20;;;1.20;;
7205;SDS011;3644;53.480;10.004;2023-11-19T02:31:19;1.73;;;1.63;;
7205;SDS011;3644;53.480;10.004;2023-11-19T02:33:45;1.27;;;1.27;;
7205;SDS011;3644;53.480;10.004;2023-11-19T02:36:10;1.40;;;1.40;;
7205;SDS011;3644;53.480;10.004;2023-11-19T02:38:36;1.50;;;1.40;;
7205;SDS011;3644;53.480;10.004;2023-11-19T02:41:06;1.13;;;1.13;;
7205;SDS011;3644;53.480;10.004;2023-11-19T02:43:32;1.33;;;1.33;;
7205;SDS011;3644;53.480;10.004;2023-11-19T02:46:02;1.47;;;1.37;;
7205;SDS011;3644;53.480;10.004;2023-11-19T02:48:32;1.50;;;1.40;;
7205;SDS011;3644;53.480;10.004;2023-11-19T02:50:58;1.53;;;1.50;;
7205;SDS011;3644;53.480;10.004;2023-11-19T02:53:28;2.87;;;1.20;;
7205;SDS011;3644;53.480;10.004;2023-11-19T02:55:54;1.50;;;1.40;;
7205;SDS011;3644;53.480;10.004;2023-11-19T02:58:26;4.63;;;2.07;;
7205;SDS011;3644;53.480;10.004;2023-11-19T03:00:55;1.60;;;1.50;;
7205;SDS011;3644;53.480;10.004;2023-11-19T03:03:24;1.20;;;1.20;;
7205;SDS011;3644;53.480;10.004;2023-11-19T03:06:02;1.00;;;1.00;;
7205;SDS011;3644;53.480;10.004;2023-11-19T03:08:30;1.53;;;1.43;;
7205;SDS011;3644;53.480;10.004;2023-11-19T03:10:56;1.50;;;1.50;;
7205;SDS011;3644;53.480;10.004;2023-11-19T03:13:21;1.60;;;1.60;;
7205;SDS011;3644;53.480;10.004;2023-11-19T03:15:47;2.90;;;2.10;;
7205;SDS011;3644;53.480;10.004;2023-11-19T03:18:12;1.20;;;1.20;;
7205;SDS011;3644;53.480;10.004;2023-11-19T03:20:38;1.40;;;1.40;;
7205;SDS011;3644;53.480;10.004;2023-11-19T03:23:03;1.63;;;1.53;;
7205;SDS011;3644;53.480;10.004;2023-11-19T03:25:30;1.33;;;1.30;;
7205;SDS011;3644;53.480;10.004;2023-11-19T03:27:59;6.03;;;1.40;;
7205;SDS011;3644;53.480;10.004;2023-11-19T03:30:28;1.23;;;1.23;;
7205;SDS011;3644;53.480;10.004;2023-11-19T03:32:57;1.30;;;1.30;;
7205;SDS011;3644;53.480;10.004;2023-11-19T03:35:24;1.30;;;1.30;;
7205;SDS011;3644;53.480;10.004;2023-11-19T03:37:50;1.33;;;1.33;;
7205;SDS011;3644;53.480;10.004;2023-11-19T03:40:16;1.70;;;1.70;;
7205;SDS011;3644;53.480;10.004;2023-11-19T03:42:43;1.33;;;1.33;;
7205;SDS011;3644;53.480;10.004;2023-11-19T03:45:12;1.53;;;1.53;;
7205;SDS011;3644;53.480;10.004;2023-11-19T03:47:39;1.30;;;1.30;;
7205;SDS011;3644;53.480;10.004;2023-11-19T03:50:05;1.73;;;1.63;;
7205;SDS011;3644;53.480;10.004;2023-11-19T03:52:32;1.50;;;1.40;;
7205;SDS011;3644;53.480;10.004;2023-11-19T03:54:58;1.67;;;1.57;;
7205;SDS011;3644;53.480;10.004;2023-11-19T03:57:24;7.03;;;1.47;;
7205;SDS011;3644;53.480;10.004;2023-11-19T03:59:49;1.40;;;1.40;;
7205;SDS011;3644;53.480;10.004;2023-11-19T04:02:15;5.50;;;1.40;;
7205;SDS011;3644;53.480;10.004;2023-11-19T04:04:41;1.20;;;1.20;;
7205;SDS011;3644;53.480;10.004;2023-11-19T04:07:07;1.50;;;1.50;;
7205;SDS011;3644;53.480;10.004;2023-11-19T04:09:32;1.70;;;1.60;;
7205;SDS011;3644;53.480;10.004;2023-11-19T04:11:58;1.60;;;1.50;;
7205;SDS011;3644;53.480;10.004;2023-11-19T04:14:25;1.63;;;1.53;;
7205;SDS011;3644;53.480;10.004;2023-11-19T04:16:51;1.83;;;1.37;;
7205;SDS011;3644;53.480;10.004;2023-11-19T04:19:17;1.80;;;1.80;;
7205;SDS011;3644;53.480;10.004;2023-11-19T04:21:43;1.60;;;1.50;;
7205;SDS011;3644;53.480;10.004;2023-11-19T04:24:10;1.40;;;1.40;;
7205;SDS011;3644;53.480;10.004;2023-11-19T04:26:43;1.40;;;1.40;;
7205;SDS011;3644;53.480;10.004;2023-11-19T04:29:13;1.50;;;1.50;;
7205;SDS011;3644;53.480;10.004;2023-11-19T04:31:40;1.77;;;1.67;;
7205;SDS011;3644;53.480;10.004;2023-11-19T04:34:06;2.00;;;1.90;;
7205;SDS011;3644;53.480;10.004;2023-11-19T04:36:31;1.77;;;1.67;;
7205;SDS011;3644;53.480;10.004;2023-11-19T04:38:58;2.40;;;1.80;;
7205;SDS011;3644;53.480;10.004;2023-11-19T04:41:24;2.50;;;2.30;;
7205;SDS011;3644;53.480;10.004;2023-11-19T04:43:50;2.33;;;2.23;;
7205;SDS011;3644;53.480;10.004;2023-11-19T04:46:16;2.30;;;2.20;;
7205;SDS011;3644;53.480;10.004;2023-11-19T04:48:41;2.50;;;2.33;;
7205;SDS011;3644;53.480;10.004;2023-11-19T04:51:07;2.37;;;2.27;;
7205;SDS011;3644;53.480;10.004;2023-11-19T04:53:34;3.00;;;2.80;;
7205;SDS011;3644;53.480;10.004;2023-11-19T04:56:00;2.90;;;2.67;;
7205;SDS011;3644;53.480;10.004;2023-11-19T04:58:25;5.10;;;2.80;;
7205;SDS011;3644;53.480;10.004;2023-11-19T05:00:53;3.70;;;2.73;;
7205;SDS011;3644;53.480;10.004;2023-11-19T05:03:19;3.17;;;2.93;;
7205;SDS011;3644;53.480;10.004;2023-11-19T05:05:44;3.43;;;3.13;;
7205;SDS011;3644;53.480;10.004;2023-11-19T05:08:10;9.00;;;3.43;;
7205;SDS011;3644;53.480;10.004;2023-11-19T05:10:36;4.20;;;2.63;;
7205;SDS011;3644;53.480;10.004;2023-11-19T05:13:02;3.07;;;2.87;;
7205;SDS011;3644;53.480;10.004;2023-11-19T05:15:27;4.03;;;3.70;;
7205;SDS011;3644;53.480;10.004;2023-11-19T05:17:53;10.87;;;4.70;;
7205;SDS011;3644;53.480;10.004;2023-11-19T05:20:18;13.73;;;7.40;;
7205;SDS011;3644;53.480;10.004;2023-11-19T05:22:44;12.90;;;9.07;;
7205;SDS011;3644;53.480;10.004;2023-11-19T05:25:10;22.70;;;10.80;;
7205;SDS011;3644;53.480;10.004;2023-11-19T05:27:36;20.87;;;10.60;;
7205;SDS011;3644;53.480;10.004;2023-11-19T05:30:03;12.33;;;8.97;;
7205;SDS011;3644;53.480;10.004;2023-11-19T05:32:35;18.07;;;9.57;;
7205;SDS011;3644;53.480;10.004;2023-11-19T05:35:01;32.03;;;12.47;;
7205;SDS011;3644;53.480;10.004;2023-11-19T05:37:27;23.53;;;11.73;;
7205;SDS011;3644;53.480;10.004;2023-11-19T05:39:52;21.23;;;10.57;;
7205;SDS011;3644;53.480;10.004;2023-11-19T05:42:18;17.73;;;9.33;;
7205;SDS011;3644;53.480;10.004;2023-11-19T05:44:43;30.13;;;10.20;;
7205;SDS011;3644;53.480;10.004;2023-11-19T05:47:09;25.47;;;10.57;;
7205;SDS011;3644;53.480;10.004;2023-11-19T05:49:34;20.50;;;9.50;;
7205;SDS011;3644;53.480;10.004;2023-11-19T05:52:00;45.77;;;10.23;;
7205;SDS011;3644;53.480;10.004;2023-11-19T05:54:28;25.03;;;10.27;;
7205;SDS011;3644;53.480;10.004;2023-11-19T05:56:53;32.13;;;10.30;;
7205;SDS011;3644;53.480;10.004;2023-11-19T05:59:19;19.27;;;10.07;;
7205;SDS011;3644;53.480;10.004;2023-11-19T06:01:45;14.40;;;10.10;;
7205;SDS011;3644;53.480;10.004;2023-11-19T06:04:11;33.20;;;11.43;;
7205;SDS011;3644;53.480;10.004;2023-11-19T06:06:37;30.33;;;11.27;;
7205;SDS011;3644;53.480;10.004;2023-11-19T06:09:03;25.77;;;10.80;;
7205;SDS011;3644;53.480;10.004;2023-11-19T06:11:29;19.67;;;9.93;;
7205;SDS011;3644;53.480;10.004;2023-11-19T06:13:54;22.13;;;10.57;;
7205;SDS011;3644;53.480;10.004;2023-11-19T06:16:21;26.13;;;10.30;;
7205;SDS011;3644;53.480;10.004;2023-11-19T06:18:46;17.37;;;8.87;;
7205;SDS011;3644;53.480;10.004;2023-11-19T06:21:12;25.37;;;9.40;;
7205;SDS011;3644;53.480;10.004;2023-11-19T06:23:38;22.90;;;9.77;;
7205;SDS011;3644;53.480;10.004;2023-11-19T06:26:03;21.17;;;8.50;;
7205;SDS011;3644;53.480;10.004;2023-11-19T06:28:30;27.33;;;11.07;;
7205;SDS011;3644;53.480;10.004;2023-11-19T06:30:55;20.93;;;8.67;;
7205;SDS011;3644;53.480;10.004;2023-11-19T06:33:22;26.30;;;9.20;;
7205;SDS011;3644;53.480;10.004;2023-11-19T06:35:48;33.47;;;9.00;;
7205;SDS011;3644;53.480;10.004;2023-11-19T06:38:14;20.07;;;8.87;;
7205;SDS011;3644;53.480;10.004;2023-11-19T06:40:39;41.80;;;8.93;;
7205;SDS011;3644;53.480;10.004;2023-11-19T06:43:06;28.90;;;9.03;;
7205;SDS011;3644;53.480;10.004;2023-11-19T06:45:33;25.17;;;8.73;;
7205;SDS011;3644;53.480;10.004;2023-11-19T06:48:00;16.63;;;7.70;;
7205;SDS011;3644;53.480;10.004;2023-11-19T06:50:28;39.33;;;7.20;;
7205;SDS011;3644;53.480;10.004;2023-11-19T06:52:53;26.83;;;7.10;;
7205;SDS011;3644;53.480;10.004;2023-11-19T06:55:19;17.90;;;8.63;;
7205;SDS011;3644;53.480;10.004;2023-11-19T06:57:44;14.97;;;6.33;;
7205;SDS011;3644;53.480;10.004;2023-11-19T07:00:10;12.73;;;5.90;;
7205;SDS011;3644;53.480;10.004;2023-11-19T07:02:36;24.07;;;6.80;;
7205;SDS011;3644;53.480;10.004;2023-11-19T07:05:02;26.87;;;7.50;;
7205;SDS011;3644;53.480;10.004;2023-11-19T07:07:30;21.93;;;6.70;;
7205;SDS011;3644;53.480;10.004;2023-11-19T07:09:56;17.80;;;7.20;;
7205;SDS011;3644;53.480;10.004;2023-11-19T07:12:22;26.50;;;10.37;;
7205;SDS011;3644;53.480;10.004;2023-11-19T07:14:47;21.40;;;7.00;;
7205;SDS011;3644;53.480;10.004;2023-11-19T07:17:13;28.67;;;6.57;;
7205;SDS011;3644;53.480;10.004;2023-11-19T07:19:38;22.43;;;5.07;;
7205;SDS011;3644;53.480;10.004;2023-11-19T07:22:04;8.80;;;3.80;;
7205;SDS011;3644;53.480;10.004;2023-11-19T07:24:31;15.83;;;4.07;;
7205;SDS011;3644;53.480;10.004;2023-11-19T07:26:56;11.80;;;4.40;;
7205;SDS011;3644;53.480;10.004;2023-11-19T07:29:22;12.53;;;4.63;;
7205;SDS011;3644;53.480;10.004;2023-11-19T07:31:48;15.73;;;4.90;;
7205;SDS011;3644;53.480;10.004;2023-11-19T07:34:14;12.07;;;5.07;;
7205;SDS011;3644;53.480;10.004;2023-11-19T07:36:39;20.00;;;7.30;;
7205;SDS011;3644;53.480;10.004;2023-11-19T07:39:05;19.90;;;5.73;;
7205;SDS011;3644;53.480;10.004;2023-11-19T07:41:31;27.30;;;6.53;;
7205;SDS011;3644;53.480;10.004;2023-11-19T07:43:57;15.13;;;6.00;;
7205;SDS011;3644;53.480;10.004;2023-11-19T07:46:22;34.97;;;6.20;;
7205;SDS011;3644;53.480;10.004;2023-11-19T07:48:48;15.97;;;5.80;;
7205;SDS011;3644;53.480;10.004;2023-11-19T07:51:14;22.03;;;5.97;;
7205;SDS011;3644;53.480;10.004;2023-11-19T07:53:40;26.87;;;5.10;;
7205;SDS011;3644;53.480;10.004;2023-11-19T07:56:06;23.10;;;5.00;;
7205;SDS011;3644;53.480;10.004;2023-11-19T07:58:32;19.03;;;5.50;;
7205;SDS011;3644;53.480;10.004;2023-11-19T08:00:58;40.70;;;5.30;;
7205;SDS011;3644;53.480;10.004;2023-11-19T08:03:23;14.70;;;4.63;;
7205;SDS011;3644;53.480;10.004;2023-11-19T08:05:49;21.20;;;5.13;;
7205;SDS011;3644;53.480;10.004;2023-11-19T08:08:14;25.00;;;4.60;;
7205;SDS011;3644;53.480;10.004;2023-11-19T08:10:42;20.70;;;4.47;;
7205;SDS011;3644;53.480;10.004;2023-11-19T08:13:09;33.10;;;5.83;;
7205;SDS011;3644;53.480;10.004;2023-11-19T08:15:35;24.60;;;5.80;;
7205;SDS011;3644;53.480;10.004;2023-11-19T08:18:01;29.13;;;3.97;;
7205;SDS011;3644;53.480;10.004;2023-11-19T08:20:27;17.67;;;4.53;;
7205;SDS011;3644;53.480;10.004;2023-11-19T08:22:52;21.67;;;4.03;;
7205;SDS011;3644;53.480;10.004;2023-11-19T08:25:18;15.73;;;3.83;;
7205;SDS011;3644;53.480;10.004;2023-11-19T08:27:43;14.93;;;4.20;;
7205;SDS011;3644;53.480;10.004;2023-11-19T08:30:09;29.00;;;4.43;;
7205;SDS011;3644;53.480;10.004;2023-11-19T08:32:35;16.47;;;3.53;;
7205;SDS011;3644;53.480;10.004;2023-11-19T08:35:01;25.67;;;5.17;;
7205;SDS011;3644;53.480;10.004;2023-11-19T08:37:26;22.63;;;4.73;;
7205;SDS011;3644;53.480;10.004;2023-11-19T08:39:52;11.33;;;3.93;;
7205;SDS011;3644;53.480;10.004;2023-11-19T08:42:17;25.03;;;5.27;;
7205;SDS011;3644;53.480;10.004;2023-11-19T08:44:43;16.13;;;3.87;;
7205;SDS011;3644;53.480;10.004;2023-11-19T08:47:12;24.43;;;5.73;;
7205;SDS011;3644;53.480;10.004;2023-11-19T08:49:38;21.73;;;4.97;;
7205;SDS011;3644;53.480;10.004;2023-11-19T08:52:04;22.93;;;4.90;;
7205;SDS011;3644;53.480;10.004;2023-11-19T08:54:30;29.73;;;4.67;;
7205;SDS011;3644;53.480;10.004;2023-11-19T08:56:55;18.97;;;4.00;;
7205;SDS011;3644;53.480;10.004;2023-11-19T08:59:21;32.20;;;5.20;;
7205;SDS011;3644;53.480;10.004;2023-11-19T09:01:46;31.07;;;3.50;;
7205;SDS011;3644;53.480;10.004;2023-11-19T09:04:12;37.40;;;5.23;;
7205;SDS011;3644;53.480;10.004;2023-11-19T09:06:37;11.37;;;3.37;;
7205;SDS011;3644;53.480;10.004;2023-11-19T09:09:03;32.03;;;4.30;;
7205;SDS011;3644;53.480;10.004;2023-11-19T09:11:30;32.37;;;5.40;;
7205;SDS011;3644;53.480;10.004;2023-11-19T09:13:56;30.27;;;4.20;;
7205;SDS011;3644;53.480;10.004;2023-11-19T09:16:21;30.73;;;4.10;;
7205;SDS011;3644;53.480;10.004;2023-11-19T09:18:47;22.23;;;4.23;;
7205;SDS011;3644;53.480;10.004;2023-11-19T09:21:12;19.67;;;4.23;;
7205;SDS011;3644;53.480;10.004;2023-11-19T09:23:38;17.43;;;4.80;;
7205;SDS011;3644;53.480;10.004;2023-11-19T09:26:08;24.37;;;6.87;;
7205;SDS011;3644;53.480;10.004;2023-11-19T09:28:35;41.20;;;6.17;;
7205;SDS011;3644;53.480;10.004;2023-11-19T09:31:00;27.80;;;6.37;;
7205;SDS011;3644;53.480;10.004;2023-11-19T09:33:29;26.03;;;7.53;;
7205;SDS011;3644;53.480;10.004;2023-11-19T09:35:55;22.13;;;4.80;;
7205;SDS011;3644;53.480;10.004;2023-11-19T09:38:20;36.20;;;5.80;;
7205;SDS011;3644;53.480;10.004;2023-11-19T09:40:46;36.30;;;7.43;;
7205;SDS011;3644;53.480;10.004;2023-11-19T09:43:12;19.40;;;5.20;;
7205;SDS011;3644;53.480;10.004;2023-11-19T09:45:47;28.07;;;7.60;;
7205;SDS011;3644;53.480;10.004;2023-11-19T09:48:17;23.53;;;5.70;;
7205;SDS011;3644;53.480;10.004;2023-11-19T09:50:44;27.07;;;6.00;;
7205;SDS011;3644;53.480;10.004;2023-11-19T09:53:12;25.87;;;4.63;;
7205;SDS011;3644;53.480;10.004;2023-11-19T09:55:37;26.40;;;4.10;;
7205;SDS011;3644;53.480;10.004;2023-11-19T09:58:03;24.87;;;4.83;;
7205;SDS011;3644;53.480;10.004;2023-11-19T10:00:29;37.13;;;5.57;;
7205;SDS011;3644;53.480;10.004;2023-11-19T10:02:55;31.37;;;6.37;;
7205;SDS011;3644;53.480;10.004;2023-11-19T10:05:22;26.20;;;5.03;;
7205;SDS011;3644;53.480;10.004;2023-11-19T10:07:49;25.00;;;4.37;;
7205;SDS011;3644;53.480;10.004;2023-11-19T10:10:15;26.77;;;4.50;;
7205;SDS011;3644;53.480;10.004;2023-11-19T10:12:44;16.33;;;4.97;;
7205;SDS011;3644;53.480;10.004;2023-11-19T10:15:14;17.83;;;4.43;;
7205;SDS011;3644;53.480;10.004;2023-11-19T10:17:45;18.93;;;3.77;;
7205;SDS011;3644;53.480;10.004;2023-11-19T10:20:11;22.10;;;6.00;;
7205;SDS011;3644;53.480;10.004;2023-11-19T10:22:36;25.73;;;4.23;;
7205;SDS011;3644;53.480;10.004;2023-11-19T10:25:03;44.73;;;6.80;;
7205;SDS011;3644;53.480;10.004;2023-11-19T10:27:29;26.70;;;4.57;;
7205;SDS011;3644;53.480;10.004;2023-11-19T10:29:55;25.77;;;4.93;;
7205;SDS011;3644;53.480;10.004;2023-11-19T10:32:24;33.90;;;5.13;;
7205;SDS011;3644;53.480;10.004;2023-11-19T10:34:50;22.07;;;4.80;;
7205;SDS011;3644;53.480;10.004;2023-11-19T10:37:33;22.00;;;5.20;;
7205;SDS011;3644;53.480;10.004;2023-11-19T10:40:02;23.57;;;5.10;;
7205;SDS011;3644;53.480;10.004;2023-11-19T10:42:30;26.80;;;3.70;;
7205;SDS011;3644;53.480;10.004;2023-11-19T10:44:55;35.60;;;4.77;;
7205;SDS011;3644;53.480;10.004;2023-11-19T10:47:22;27.13;;;4.60;;
7205;SDS011;3644;53.480;10.004;2023-11-19T10:49:48;26.47;;;4.40;;
7205;SDS011;3644;53.480;10.004;2023-11-19T10:52:18;28.30;;;5.47;;
7205;SDS011;3644;53.480;10.004;2023-11-19T10:54:49;24.37;;;4.93;;
7205;SDS011;3644;53.480;10.004;2023-11-19T10:57:19;18.20;;;4.53;;
7205;SDS011;3644;53.480;10.004;2023-11-19T10:59:46;26.80;;;5.50;;
7205;SDS011;3644;53.480;10.004;2023-11-19T11:02:14;19.73;;;4.30;;
7205;SDS011;3644;53.480;10.004;2023-11-19T11:04:44;22.70;;;4.10;;
7205;SDS011;3644;53.480;10.004;2023-11-19T11:07:12;22.13;;;4.70;;
7205;SDS011;3644;53.480;10.004;2023-11-19T11:09:39;20.47;;;4.77;;
7205;SDS011;3644;53.480;10.004;2023-11-19T11:12:06;21.93;;;4.77;;
7205;SDS011;3644;53.480;10.004;2023-11-19T11:14:35;23.77;;;4.90;;
7205;SDS011;3644;53.480;10.004;2023-11-19T11:17:03;26.40;;;5.73;;
7205;SDS011;3644;53.480;10.004;2023-11-19T11:19:32;30.10;;;5.70;;
7205;SDS011;3644;53.480;10.004;2023-11-19T11:21:58;29.50;;;5.60;;
7205;SDS011;3644;53.480;10.004;2023-11-19T11:27:03;29.90;;;4.97;;
7205;SDS011;3644;53.480;10.004;2023-11-19T11:29:48;27.07;;;3.80;;
7205;SDS011;3644;53.480;10.004;2023-11-19T11:37:47;31.90;;;7.30;;
7205;SDS011;3644;53.480;10.004;2023-11-19T11:40:24;23.23;;;4.03;;
7205;SDS011;3644;53.480;10.004;2023-11-19T11:42:51;16.03;;;3.60;;
7205;SDS011;3644;53.480;10.004;2023-11-19T11:45:17;33.00;;;5.40;;
7205;SDS011;3644;53.480;10.004;2023-11-19T11:50:19;32.43;;;5.57;;
7205;SDS011;3644;53.480;10.004;2023-11-19T11:55:26;13.10;;;4.27;;
7205;SDS011;3644;53.480;10.004;2023-11-19T11:57:53;18.27;;;3.90;;
7205;SDS011;3644;53.480;10.004;2023-11-19T12:00:37;34.27;;;3.90;;
7205;SDS011;3644;53.480;10.004;2023-11-19T12:03:04;29.77;;;5.17;;
7205;SDS011;3644;53.480;10.004;2023-11-19T12:05:32;14.60;;;3.10;;
7205;SDS011;3644;53.480;10.004;2023-11-19T12:08:05;27.10;;;5.03;;
7205;SDS011;3644;53.480;10.004;2023-11-19T12:10:36;44.23;;;9.97;;
7205;SDS011;3644;53.480;10.004;2023-11-19T12:13:09;53.70;;;14.80;;
7205;SDS011;3644;53.480;10.004;2023-11-19T12:16:06;21.63;;;5.50;;
7205;SDS011;3644;53.480;10.004;2023-11-19T12:18:32;47.43;;;17.90;;
7205;SDS011;3644;53.480;10.004;2023-11-19T12:21:00;41.00;;;8.53;;
7205;SDS011;3644;53.480;10.004;2023-11-19T12:23:28;27.93;;;7.80;;
7205;SDS011;3644;53.480;10.004;2023-11-19T12:25:54;29.97;;;7.80;;
7205;SDS011;3644;53.480;10.004;2023-11-19T12:28:20;20.27;;;7.33;;
7205;SDS011;3644;53.480;10.004;2023-11-19T12:30:46;22.37;;;4.53;;
7205;SDS011;3644;53.480;10.004;2023-11-19T12:33:13;33.87;;;5.67;;
7205;SDS011;3644;53.480;10.004;2023-11-19T12:35:41;28.20;;;7.07;;
7205;SDS011;3644;53.480;10.004;2023-11-19T12:38:08;31.73;;;6.13;;
7205;SDS011;3644;53.480;10.004;2023-11-19T12:40:42;62.77;;;13.87;;
7205;SDS011;3644;53.480;10.004;2023-11-19T12:43:08;34.07;;;9.33;;
7205;SDS011;3644;53.480;10.004;2023-11-19T12:45:34;31.23;;;8.17;;
7205;SDS011;3644;53.480;10.004;2023-11-19T12:48:07;94.40;;;26.13;;
7205;SDS011;3644;53.480;10.004;2023-11-19T12:50:49;56.07;;;15.87;;
7205;SDS011;3644;53.480;10.004;2023-11-19T12:53:17;40.83;;;10.70;;
7205;SDS011;3644;53.480;10.004;2023-11-19T12:55:43;48.53;;;12.67;;
7205;SDS011;3644;53.480;10.004;2023-11-19T12:58:09;43.13;;;11.17;;
7205;SDS011;3644;53.480;10.004;2023-11-19T13:00:34;20.90;;;4.60;;
7205;SDS011;3644;53.480;10.004;2023-11-19T13:03:00;23.77;;;7.20;;
7205;SDS011;3644;53.480;10.004;2023-11-19T13:07:59;19.70;;;4.37;;
7205;SDS011;3644;53.480;10.004;2023-11-19T13:10:29;19.67;;;4.60;;
7205;SDS011;3644;53.480;10.004;2023-11-19T13:13:15;14.37;;;3.70;;
7205;SDS011;3644;53.480;10.004;2023-11-19T13:15:43;26.37;;;3.53;;
7205;SDS011;3644;53.480;10.004;2023-11-19T13:18:11;14.57;;;4.83;;
7205;SDS011;3644;53.480;10.004;2023-11-19T13:20:38;24.97;;;3.77;;
7205;SDS011;3644;53.480;10.004;2023-11-19T13:23:04;22.53;;;4.93;;
7205;SDS011;3644;53.480;10.004;2023-11-19T13:25:31;30.47;;;4.83;;
7205;SDS011;3644;53.480;10.004;2023-11-19T13:27:57;25.00;;;4.60;;
7205;SDS011;3644;53.480;10.004;2023-11-19T13:30:24;26.83;;;6.07;;
7205;SDS011;3644;53.480;10.004;2023-11-19T13:32:50;27.73;;;4.40;;
7205;SDS011;3644;53.480;10.004;2023-11-19T13:35:17;15.97;;;3.50;;
7205;SDS011;3644;53.480;10.004;2023-11-19T13:37:43;19.07;;;3.80;;
7205;SDS011;3644;53.480;10.004;2023-11-19T13:40:09;27.73;;;3.73;;
7205;SDS011;3644;53.480;10.004;2023-11-19T13:42:38;27.50;;;4.13;;
7205;SDS011;3644;53.480;10.004;2023-11-19T13:45:10;26.97;;;4.30;;
7205;SDS011;3644;53.480;10.004;2023-11-19T13:47:37;16.43;;;3.50;;
7205;SDS011;3644;53.480;10.004;2023-11-19T13:50:06;20.73;;;7.47;;
7205;SDS011;3644;53.480;10.004;2023-11-19T13:52:36;16.40;;;5.00;;
7205;SDS011;3644;53.480;10.004;2023-11-19T13:55:03;14.57;;;3.50;;
7205;SDS011;3644;53.480;10.004;2023-11-19T13:57:33;19.80;;;3.53;;
7205;SDS011;3644;53.480;10.004;2023-11-19T14:00:00;22.30;;;4.40;;
7205;SDS011;3644;53.480;10.004;2023-11-19T14:02:28;32.83;;;8.60;;
7205;SDS011;3644;53.480;10.004;2023-11-19T14:04:53;47.90;;;13.87;;
7205;SDS011;3644;53.480;10.004;2023-11-19T14:07:19;65.87;;;16.70;;
7205;SDS011;3644;53.480;10.004;2023-11-19T14:09:45;48.13;;;14.97;;
7205;SDS011;3644;53.480;10.004;2023-11-19T14:12:10;24.83;;;4.50;;
7205;SDS011;3644;53.480;10.004;2023-11-19T14:14:37;31.50;;;9.47;;
7205;SDS011;3644;53.480;10.004;2023-11-19T14:17:04;35.23;;;9.17;;
7205;SDS011;3644;53.480;10.004;2023-11-19T14:19:30;25.90;;;6.43;;
7205;SDS011;3644;53.480;10.004;2023-11-19T14:21:55;22.27;;;5.83;;
7205;SDS011;3644;53.480;10.004;2023-11-19T14:24:21;25.23;;;6.17;;
7205;SDS011;3644;53.480;10.004;2023-11-19T14:26:47;22.97;;;8.93;;
7205;SDS011;3644;53.480;10.004;2023-11-19T14:29:13;25.17;;;5.13;;
7205;SDS011;3644;53.480;10.004;2023-11-19T14:31:40;27.50;;;7.13;;
7205;SDS011;3644;53.480;10.004;2023-11-19T14:34:05;29.40;;;7.90;;
7205;SDS011;3644;53.480;10.004;2023-11-19T14:36:31;19.23;;;5.00;;
7205;SDS011;3644;53.480;10.004;2023-11-19T14:38:57;23.87;;;5.93;;
7205;SDS011;3644;53.480;10.004;2023-11-19T14:41:23;24.23;;;4.80;;
7205;SDS011;3644;53.480;10.004;2023-11-19T14:43:49;16.77;;;3.40;;
7205;SDS011;3644;53.480;10.004;2023-11-19T14:46:15;22.97;;;4.20;;
7205;SDS011;3644;53.480;10.004;2023-11-19T14:48:40;17.80;;;4.17;;
7205;SDS011;3644;53.480;10.004;2023-11-19T14:51:06;17.80;;;3.80;;
7205;SDS011;3644;53.480;10.004;2023-11-19T14:53:31;26.57;;;3.80;;
7205;SDS011;3644;53.480;10.004;2023-11-19T14:55:58;15.97;;;2.53;;
7205;SDS011;3644;53.480;10.004;2023-11-19T14:58:23;10.87;;;4.47;;
7205;SDS011;3644;53.480;10.004;2023-11-19T15:00:50;18.77;;;4.43;;
7205;SDS011;3644;53.480;10.004;2023-11-19T15:03:16;31.53;;;4.23;;
7205;SDS011;3644;53.480;10.004;2023-11-19T15:05:44;16.80;;;3.80;;